Time;durP1;ratioP1;P1;durP2;ratioP2;P2;SDS_P1;SDS_P2;PMS_P1;PMS_P2;Temp;Humidity;BMP_temperature;BMP_pressure;BME280_temperature;BME280_humidity;BME280_pressure;Samples;Min_cycle;Max_cycle;Signal;HPM_P1;HPM_P2
2021/11/24 00:03:34;;;;;;;43.87;29.37;;;;;;;5.46;100.00;101233.81;21222029;27;20237;-64
2021/11/24 00:23:33;;;;;;;38.33;28.17;;;;;;;5.47;100.00;101227.59;21187953;27;20572;-67
2021/11/24 00:53:29;;;;;;;38.10;26.37;;;;;;;5.47;100.00;101202.00;21061820;27;20575;-67
2021/11/24 01:13:28;;;;;;;38.20;27.10;;;;;;;5.50;100.00;101201.06;21058385;27;21095;-64
2021/11/24 01:23:31;;;;;;;31.77;24.60;;;;;;;5.51;100.00;101194.84;21056053;28;20245;-67
2021/11/24 01:33:35;;;;;;;39.33;28.23;;;;;;;5.37;100.00;101196.09;21055461;28;20250;-66
2021/11/24 02:23:34;;;;;;;26.20;20.27;;;;;;;5.40;100.00;101153.69;20977362;27;20613;-60
2021/11/24 02:33:37;;;;;;;24.90;18.17;;;;;;;5.49;100.00;101143.72;20972827;28;20218;-62
2021/11/24 02:43:41;;;;;;;22.47;18.77;;;;;;;5.58;100.00;101133.72;21004448;28;20337;-66
2021/11/24 02:53:44;;;;;;;30.67;23.33;;;;;;;5.61;100.00;101143.34;20971138;28;20294;-65
2021/11/24 03:03:47;;;;;;;26.23;19.87;;;;;;;5.60;100.00;101125.72;20961103;28;20309;-65
2021/11/24 03:13:50;;;;;;;28.77;20.13;;;;;;;5.62;100.00;101126.56;20922264;28;20710;-64
2021/11/24 03:23:54;;;;;;;30.20;21.47;;;;;;;5.51;100.00;101116.28;20941021;28;20576;-64
2021/11/24 03:33:57;;;;;;;31.27;21.07;;;;;;;5.43;100.00;101121.81;20835350;28;20307;-58
2021/11/24 03:44:00;;;;;;;33.67;22.03;;;;;;;5.49;100.00;101111.97;20830182;28;20243;-64
2021/11/24 04:04:00;;;;;;;27.43;19.20;;;;;;;5.54;100.00;101125.94;20974202;27;21563;-61
2021/11/24 04:14:10;;;;;;;26.13;17.67;;;;;;;5.60;100.00;101115.13;20972679;28;20254;-61
2021/11/24 04:44:06;;;;;;;25.33;18.77;;;;;;;5.59;100.00;101105.47;20973070;28;20844;-66
2021/11/24 04:54:09;;;;;;;23.83;17.37;;;;;;;5.56;100.00;101097.59;20972666;28;20241;-62
2021/11/24 05:14:13;;;;;;;21.30;15.00;;;;;;;5.50;100.00;101100.47;21056963;27;20557;-65
2021/11/24 05:24:17;;;;;;;19.87;15.20;;;;;;;5.51;100.00;101094.25;21056144;28;20218;-67
2021/11/24 05:34:20;;;;;;;19.33;15.33;;;;;;;5.54;100.00;101096.81;21055425;28;20245;-63
2021/11/24 05:54:20;;;;;;;19.13;14.47;;;;;;;5.58;100.00;101090.47;21069090;27;20572;-66
2021/11/24 06:14:19;;;;;;;21.33;16.67;;;;;;;5.55;100.00;101101.19;21107210;27;1327731;-66
2021/11/24 07:33:59;;;;;;;18.80;16.43;;;;;;;6.28;100.00;101117.38;20955958;27;20359;-69
2021/11/24 07:44:03;;;;;;;19.87;16.17;;;;;;;6.35;100.00;101118.91;21008296;28;20216;-60
2021/11/24 07:54:06;;;;;;;17.50;15.70;;;;;;;6.41;100.00;101119.53;20942250;28;20251;-56
2021/11/24 08:04:10;;;;;;;19.93;17.27;;;;;;;6.53;100.00;101126.19;20966469;28;20222;-55
2021/11/24 08:14:13;;;;;;;22.33;18.87;;;;;;;6.47;100.00;101105.22;20969794;28;20225;-61
2021/11/24 08:44:03;;;;;;;20.40;18.00;;;;;;;6.49;100.00;101121.94;21000606;27;20932;-56
2021/11/24 09:04:02;;;;;;;18.97;16.53;;;;;;;6.45;100.00;101128.25;21224794;27;21182;-60
2021/11/24 09:14:05;;;;;;;17.30;14.80;;;;;;;6.70;100.00;101129.13;21197882;27;20228;-65
2021/11/24 09:34:05;;;;;;;19.30;16.93;;;;;;;6.94;100.00;101121.22;20927999;27;1348643;-65
2021/11/24 09:44:08;;;;;;;20.63;17.47;;;;;;;7.03;100.00;101099.66;20972478;28;20252;-54
2021/11/24 09:54:14;;;;;;;17.30;15.57;;;;;;;7.17;100.00;101105.31;20971710;28;20705;-64
2021/11/24 10:04:17;;;;;;;17.30;15.23;;;;;;;7.16;100.00;101090.31;20966555;28;20244;-60
2021/11/24 10:14:21;;;;;;;15.13;13.63;;;;;;;7.46;100.00;101098.91;20966223;28;20234;-61
2021/11/24 10:44:27;;;;;;;17.23;15.33;;;;;;;7.40;100.00;101065.47;21069402;27;20640;-59
2021/11/24 10:54:31;;;;;;;16.90;15.07;;;;;;;7.63;100.00;101058.38;21053390;27;20628;-67
2021/11/24 11:04:34;;;;;;;15.50;13.90;;;;;;;7.69;100.00;101058.13;21052877;27;20316;-58
2021/11/24 11:14:37;;;;;;;16.80;14.97;;;;;;;7.58;100.00;101051.47;21054948;27;20781;-60
2021/11/24 11:24:41;;;;;;;17.47;15.27;;;;;;;7.67;100.00;101028.97;21053843;27;20342;-59
2021/11/24 11:34:44;;;;;;;16.17;14.47;;;;;;;8.17;100.00;101024.19;21052947;27;20266;-59
2021/11/24 11:44:51;;;;;;;16.03;14.53;;;;;;;8.23;100.00;101013.28;21052752;27;20233;-61
2021/11/24 11:55:22;;;;;;;15.60;14.00;;;;;;;8.09;100.00;101010.34;20997688;28;20233;-58
2021/11/24 12:05:25;;;;;;;13.77;12.47;;;;;;;8.25;100.00;101013.22;20995133;28;20595;-59
2021/11/24 12:15:29;;;;;;;13.27;11.97;;;;;;;8.20;100.00;100997.50;20994371;28;20232;-62
2021/11/24 12:25:34;;;;;;;14.30;12.90;;;;;;;7.87;100.00;100999.78;20992063;28;20232;-69
2021/11/24 12:35:40;;;;;;;13.40;12.00;;;;;;;7.94;100.00;100989.75;20991771;28;20261;-59
2021/11/24 12:56:09;;;;;;;13.63;12.33;;;;;;;7.92;100.00;100983.66;21058092;27;21077;-63
2021/11/24 13:06:12;;;;;;;13.07;11.80;;;;;;;7.76;100.00;100979.91;21055729;28;20247;-59
2021/11/24 13:16:21;;;;;;;15.50;14.00;;;;;;;7.55;100.00;100979.00;21055129;28;20286;-68
2021/11/24 13:46:52;;;;;;;13.60;12.30;;;;;;;7.47;100.00;100958.09;21128197;27;20604;-65
2021/11/24 13:57:00;;;;;;;12.60;11.40;;;;;;;7.27;100.00;100951.84;21139996;27;20605;-61
2021/11/24 14:07:09;;;;;;;14.73;13.23;;;;;;;7.06;100.00;100954.44;21138620;27;20254;-64
2021/11/24 14:17:24;;;;;;;14.20;12.80;;;;;;;6.92;100.00;100953.25;21117778;27;20226;-61
2021/11/24 14:27:27;;;;;;;15.57;13.97;;;;;;;6.78;100.00;100961.75;21135746;27;20247;-68
2021/11/24 14:37:30;;;;;;;14.07;12.57;;;;;;;6.70;100.00;100948.78;21136699;27;20228;-66
2021/11/24 14:57:47;;;;;;;13.50;12.10;;;;;;;6.52;100.00;100956.59;21032389;27;20759;-56
2021/11/24 15:07:51;;;;;;;17.70;15.40;;;;;;;6.39;100.00;100954.38;21030878;28;20290;-60
2021/11/24 15:17:54;;;;;;;15.77;13.73;;;;;;;6.39;100.00;100953.53;21031564;28;20227;-62
2021/11/24 15:27:58;;;;;;;17.13;15.10;;;;;;;6.42;100.00;100958.69;20975753;28;20237;-63
2021/11/24 15:38:03;;;;;;;15.00;13.37;;;;;;;6.37;100.00;100950.06;20864110;28;20225;-65
2021/11/24 15:48:07;;;;;;;16.23;13.53;;;;;;;6.29;100.00;100952.09;20863063;28;20275;-56
2021/11/24 15:58:13;;;;;;;15.93;14.33;;;;;;;6.22;100.00;100955.91;20825778;28;20228;-60
2021/11/24 16:08:17;;;;;;;17.93;15.43;;;;;;;6.17;100.00;100944.59;20735169;28;20252;-54
2021/11/24 16:38:13;;;;;;;22.40;19.00;;;;;;;5.83;100.00;100945.78;20981623;27;20560;-61
2021/11/24 16:48:17;;;;;;;19.50;16.57;;;;;;;5.91;100.00;100935.81;21033437;27;20252;-60
2021/11/24 16:58:22;;;;;;;23.50;19.40;;;;;;;5.91;100.00;100933.19;20992316;27;20318;-62
2021/11/24 17:08:26;;;;;;;21.50;17.87;;;;;;;5.94;100.00;100930.41;20978788;28;20238;-62
2021/11/24 17:28:28;;;;;;;23.53;19.10;;;;;;;5.92;100.00;100923.41;21012342;27;20665;-66
2021/11/24 17:38:31;;;;;;;22.70;18.67;;;;;;;5.92;100.00;100923.41;21006149;27;20274;-60
2021/11/24 17:48:35;;;;;;;20.97;18.23;;;;;;;5.68;100.00;100917.16;20920774;27;20261;-64
2021/11/24 17:58:41;;;;;;;21.23;18.13;;;;;;;5.40;100.00;100902.25;20964947;28;20319;-58
2021/11/24 18:08:45;;;;;;;25.73;20.43;;;;;;;5.00;100.00;100891.22;20938431;28;20754;-58
2021/11/24 18:18:49;;;;;;;23.57;18.67;;;;;;;4.57;100.00;100897.88;20997087;28;20245;-58
2021/11/24 18:28:54;;;;;;;23.13;19.87;;;;;;;4.30;100.00;100898.69;20999302;28;20726;-60
2021/11/24 18:38:59;;;;;;;24.80;20.13;;;;;;;4.03;100.00;100894.19;20947134;28;20301;-58
2021/11/24 18:49:02;;;;;;;31.80;23.53;;;;;;;3.91;100.00;100895.41;20860470;28;20556;-59
2021/11/24 18:59:07;;;;;;;28.13;21.50;;;;;;;4.10;100.00;100893.13;20857532;28;20273;-58
2021/11/24 19:09:10;;;;;;;30.07;22.43;;;;;;;4.22;100.00;100891.00;20859705;28;20389;-59
2021/11/24 19:19:14;;;;;;;26.27;21.17;;;;;;;4.47;100.00;100885.00;20841653;28;20232;-60
2021/11/24 19:29:19;;;;;;;27.27;21.63;;;;;;;4.60;100.00;100881.03;20857210;28;20273;-59
2021/11/24 19:39:24;;;;;;;28.17;20.43;;;;;;;4.66;100.00;100880.88;20891856;28;20646;-59
2021/11/24 19:49:27;;;;;;;28.07;20.90;;;;;;;4.55;100.00;100889.13;20901458;28;20238;-56
2021/11/24 19:59:31;;;;;;;27.83;21.63;;;;;;;4.49;100.00;100878.72;20906469;28;20685;-56
2021/11/24 20:09:37;;;;;;;25.43;19.60;;;;;;;4.62;100.00;100877.44;20903210;28;20227;-66
2021/11/24 20:29:36;;;;;;;25.20;20.47;;;;;;;4.90;100.00;100864.22;21163714;27;21129;-62
2021/11/24 20:39:40;;;;;;;23.83;19.13;;;;;;;5.04;100.00;100861.13;21120435;27;20236;-64
2021/11/24 20:59:41;;;;;;;23.67;19.13;;;;;;;4.88;100.00;100852.81;20929134;27;20304;-65
2021/11/24 21:09:46;;;;;;;23.43;18.10;;;;;;;4.72;100.00;100838.34;20908433;28;20230;-59
2021/11/24 21:19:50;;;;;;;23.33;16.90;;;;;;;4.63;100.00;100842.16;20903608;28;20234;-57
2021/11/24 21:29:54;;;;;;;21.10;17.27;;;;;;;4.76;100.00;100839.13;20938005;28;20223;-60
2021/11/24 21:39:57;;;;;;;19.53;15.37;;;;;;;4.89;100.00;100840.47;20930438;28;20231;-57
2021/11/24 21:50:01;;;;;;;19.73;16.43;;;;;;;4.95;100.00;100827.91;20960160;28;20238;-57
2021/11/24 22:00:06;;;;;;;20.57;16.57;;;;;;;5.02;100.00;100825.94;20968092;28;20333;-58
2021/11/24 22:20:31;;;;;;;22.93;18.67;;;;;;;5.01;100.00;100808.31;20908592;28;20230;-58
2021/11/24 22:30:34;;;;;;;23.30;18.80;;;;;;;4.96;100.00;100799.66;20837610;28;20319;-64
2021/11/24 22:40:38;;;;;;;19.67;16.27;;;;;;;4.95;100.00;100797.97;20828329;28;20708;-64
2021/11/24 22:50:41;;;;;;;18.80;15.40;;;;;;;5.01;100.00;100792.47;20810051;28;20324;-67
2021/11/24 23:00:45;;;;;;;15.73;13.83;;;;;;;5.10;100.00;100776.25;20827031;28;20230;-65
2021/11/24 23:10:49;;;;;;;15.63;13.23;;;;;;;5.14;100.00;100755.88;20825277;28;20563;-58
2021/11/24 23:20:52;;;;;;;17.10;13.43;;;;;;;5.13;100.00;100739.13;20906167;28;20277;-59
2021/11/24 23:30:56;;;;;;;16.07;13.80;;;;;;;5.10;100.00;100739.22;20906435;28;20237;-57
2021/11/24 23:41:00;;;;;;;15.87;12.80;;;;;;;5.07;100.00;100744.66;20905843;28;20255;-57
2021/11/24 23:51:03;;;;;;;16.97;14.53;;;;;;;5.10;100.00;100727.78;20887561;28;20270;-57
